Portada
METAR-TAF:

METAR-TAF

Aeroports :

Funafuti, Tuvalu

latitud: 08-31S, longitud: 179-13E, altitud: 1 m

Observació

L'informe es va fer fa 57 minuts, a les 07:00 UTC
Vent 13 kt del Est
Temperatura 30°C
Humitat 75%
Pressió 1007 hPa
Visibilitat 10 km o més
Escasses núvols a una alçada de 2000 ft

METAR: NGFU 180700Z 09013KT 9999 FEW020 30/25 Q1007

Hora: 19:57 (07:57 UTC)

Pronòstic

L'informe es va fer fa 2 hores i 52 minuts, a les 05:05 UTC
Pronòstic vàlid del 18 a les 06 UTC al 19 a les 06 UTC
Vent 9 kt del Est
Visibilitat 10 km o més
Núvols disperses a una alçada de 1800 ft
Núvols disperses a una alçada de 4500 ft

TAF: NGFU 180505Z 1806/1906 09009KT 9999 SCT018 SCT045

Observacions i pronòstics meteorològics de més de 4000 aeroports (METAR i TAF).

Les estacions disponibles són els punts grocs i vermells al mapa.

Posi el ratolí al punt desitjat per veure el nom de l'estació.

Feu clic per veure les observacions i els pronòstics meteorològics.

Per canviar el mapa: feu clic els botons verds amb una creu de color negre per apropar; al botó verd amb un guió per allunyar la imatge; o en les fletxes verdes per a mapes adjacents.


METAR-TAF: